Enter the Airport ICAO Code

Search by Airport or City

Current Weather

SARI | Cataratas del Iguaz˙ International Airport

Puerto Iguaz˙,áMisiones, Argentina

Last Update 11 Minutes Ago

Mist

Temperature of 15 ║C

Light Winds from South

Temperature

15 ║C

Dew Point Temperature

15 ║C

Relative Humidity

100 %

Wind Direction

South (180║, Without Significant Variations)

Wind Velocity

6 km/h (03 kt)

Gusts

None

Visibility

Reduced to 2.0 Kilometers

Sea Level Pressure

1014 hPa (Hectopascals)

Layers of Clouds

None

METAR SARI 131100Z 18003KT 2000 BR NSC 15/15 Q1014

Weather Forecast

SARI | Cataratas del Iguaz˙ International Airport

Puerto Iguaz˙,áMisiones, Argentina

Forecast valid for the next 19 Hours

From now on it is expected:

Completely Cloudy Sky

From now on it is expected 4 hours with intermittent periods of:

Light Rain

Maximum Temperature

23 ║C in 7 Hours

Minimum Temperature

16 ║C in -1 Hours

TAF SARI 130500Z 1306/1406 18005KT CAVOK TX23/1318Z TN16/1310Z BECMG 1307/1309 OVC007 PROB30 TEMPO 1311/1315 6000 -RA